createdAt,value
2022-07-29T00:01:44.659Z,21.90
2022-07-29T00:04:12.386Z,19.40
2022-07-29T00:06:39.038Z,19.67
2022-07-29T00:09:05.903Z,19.98
2022-07-29T00:11:32.291Z,17.00
2022-07-29T00:13:58.710Z,14.52
2022-07-29T00:16:25.147Z,14.23
2022-07-29T00:18:53.866Z,13.77
2022-07-29T00:21:20.426Z,13.32
2022-07-29T00:23:46.854Z,14.32
2022-07-29T00:26:13.262Z,12.32
2022-07-29T00:28:39.712Z,12.88
2022-07-29T00:31:06.387Z,13.05
2022-07-29T00:33:32.901Z,13.35
2022-07-29T00:35:59.324Z,14.05
2022-07-29T00:38:25.788Z,11.77
2022-07-29T00:40:52.222Z,11.82
2022-07-29T00:43:18.808Z,13.57
2022-07-29T00:45:45.655Z,12.25
2022-07-29T00:48:12.261Z,12.68
2022-07-29T00:50:38.875Z,11.05
2022-07-29T00:53:08.108Z,12.27
2022-07-29T00:55:35.518Z,12.88
2022-07-29T00:58:02.150Z,12.30
2022-07-29T01:00:31.514Z,11.27
2022-07-29T01:02:58.123Z,13.60
2022-07-29T01:05:51.559Z,14.05
2022-07-29T01:08:16.290Z,15.45
2022-07-29T01:10:45.036Z,14.35
2022-07-29T01:13:12.855Z,11.07
2022-07-29T01:15:49.207Z,14.95
2022-07-29T01:18:31.189Z,13.82
2022-07-29T01:21:15.572Z,13.63
2022-07-29T01:24:07.239Z,12.10
2022-07-29T01:26:55.392Z,12.35
2022-07-29T01:29:21.798Z,11.65
2022-07-29T01:31:59.034Z,11.63
2022-07-29T01:34:45.783Z,11.65
2022-07-29T01:37:26.093Z,11.18
2022-07-29T01:39:56.312Z,11.98
2022-07-29T01:42:36.412Z,11.52
2022-07-29T01:45:17.942Z,10.57
2022-07-29T01:47:47.564Z,15.18
2022-07-29T01:50:18.511Z,14.30
2022-07-29T01:52:50.729Z,14.77
2022-07-29T01:55:20.969Z,13.88
2022-07-29T01:57:49.094Z,11.57
2022-07-29T02:00:16.951Z,11.85
2022-07-29T02:02:46.705Z,14.07
2022-07-29T02:05:16.628Z,12.25
2022-07-29T02:07:43.994Z,12.10
2022-07-29T02:10:13.184Z,11.60
2022-07-29T02:12:41.408Z,10.95
2022-07-29T02:15:10.808Z,12.95
2022-07-29T02:17:49.817Z,13.35
2022-07-29T02:20:17.116Z,14.20
2022-07-29T02:22:45.841Z,13.57
2022-07-29T02:25:14.730Z,15.45
2022-07-29T02:27:43.572Z,15.00
2022-07-29T02:30:11.657Z,16.40
2022-07-29T02:32:40.983Z,17.70
2022-07-29T02:35:10.206Z,16.83
2022-07-29T02:37:37.801Z,17.50
2022-07-29T02:40:06.964Z,17.40
2022-07-29T02:42:35.916Z,28.60
2022-07-29T02:45:02.318Z,38.47
2022-07-29T02:47:41.273Z,39.50
2022-07-29T02:50:20.998Z,40.85
2022-07-29T02:52:56.610Z,50.40
2022-07-29T02:55:33.028Z,67.38
2022-07-29T02:58:04.379Z,87.00
2022-07-29T03:00:34.278Z,92.57
2022-07-29T03:03:04.665Z,75.32
2022-07-29T03:05:32.086Z,80.15
2022-07-29T03:08:01.973Z,80.15
2022-07-29T03:10:29.269Z,86.20
2022-07-29T03:12:56.571Z,71.80
2022-07-29T03:15:24.124Z,73.85
2022-07-29T03:17:53.513Z,62.10
2022-07-29T03:20:20.395Z,62.67
2022-07-29T03:22:49.410Z,58.75
2022-07-29T03:25:17.475Z,63.28
2022-07-29T03:27:44.886Z,65.72
2022-07-29T03:30:12.562Z,63.00
2022-07-29T03:32:45.265Z,66.70
2022-07-29T03:35:12.266Z,62.80
2022-07-29T03:37:38.710Z,58.00
2022-07-29T03:40:09.687Z,69.75
2022-07-29T03:42:38.903Z,76.72
2022-07-29T03:45:09.241Z,68.00
2022-07-29T03:47:51.126Z,71.22
2022-07-29T03:50:21.220Z,70.78
2022-07-29T03:52:48.514Z,68.75
2022-07-29T03:55:16.143Z,76.82
2022-07-29T03:57:43.576Z,74.85
2022-07-29T04:00:11.114Z,68.55
2022-07-29T04:02:40.148Z,68.70
2022-07-29T04:05:13.527Z,68.40
2022-07-29T04:07:40.629Z,77.68
2022-07-29T04:10:08.412Z,72.35
2022-07-29T04:12:34.798Z,74.40
2022-07-29T04:15:01.181Z,84.07
2022-07-29T04:17:27.555Z,79.95
2022-07-29T04:19:53.945Z,73.60
2022-07-29T04:22:20.359Z,89.18
2022-07-29T04:24:46.784Z,85.15
2022-07-29T04:27:13.328Z,71.90
2022-07-29T04:29:56.112Z,75.00
2022-07-29T04:32:23.806Z,72.97
2022-07-29T04:34:50.242Z,74.88
2022-07-29T04:37:16.722Z,71.30
2022-07-29T04:39:43.215Z,77.30
2022-07-29T04:42:09.589Z,68.22
2022-07-29T04:44:37.228Z,71.82
2022-07-29T04:47:08.763Z,65.68
2022-07-29T04:49:35.199Z,67.10
2022-07-29T04:52:01.668Z,67.10
2022-07-29T04:54:28.092Z,68.60
2022-07-29T04:56:54.528Z,65.65
2022-07-29T04:59:20.930Z,70.78
2022-07-29T05:01:47.414Z,72.15
2022-07-29T05:04:14.197Z,76.60
2022-07-29T05:06:40.899Z,72.60
2022-07-29T05:09:07.274Z,70.15
2022-07-29T05:11:33.794Z,71.78
2022-07-29T05:14:00.176Z,72.63
2022-07-29T05:16:26.837Z,72.65
2022-07-29T05:18:53.352Z,73.32
2022-07-29T05:21:19.785Z,72.68
2022-07-29T05:23:46.173Z,72.18
2022-07-29T05:26:13.049Z,66.15
2022-07-29T05:28:39.425Z,64.00
2022-07-29T05:31:05.826Z,69.90
2022-07-29T05:33:35.671Z,70.60
2022-07-29T05:36:06.403Z,68.63
2022-07-29T05:38:32.933Z,61.25
2022-07-29T05:41:00.377Z,61.85
2022-07-29T05:43:30.270Z,59.65
2022-07-29T05:45:56.949Z,59.80
2022-07-29T05:48:23.447Z,56.47
2022-07-29T05:50:49.934Z,50.45
2022-07-29T05:53:19.074Z,50.10
2022-07-29T05:55:46.792Z,50.80
2022-07-29T05:58:13.366Z,50.65
2022-07-29T06:00:39.798Z,49.70
2022-07-29T06:03:06.439Z,50.33
2022-07-29T06:05:32.874Z,51.10
2022-07-29T06:07:59.306Z,52.42
2022-07-29T06:10:26.189Z,50.88
2022-07-29T06:12:53.922Z,50.42
2022-07-29T06:15:20.497Z,53.90
2022-07-29T06:17:59.172Z,52.67
2022-07-29T06:20:30.532Z,55.15
2022-07-29T06:22:57.648Z,53.58
2022-07-29T06:25:24.110Z,54.03
2022-07-29T06:27:50.625Z,53.67
2022-07-29T06:30:17.078Z,52.35
2022-07-29T06:32:44.555Z,53.53
2022-07-29T06:35:41.863Z,52.17
2022-07-29T06:37:59.561Z,52.13
2022-07-29T06:40:44.980Z,49.83
2022-07-29T06:43:11.753Z,51.95
2022-07-29T06:45:40.484Z,53.10
2022-07-29T06:48:07.009Z,53.17
2022-07-29T06:50:33.497Z,52.92
2022-07-29T06:52:59.872Z,52.60
2022-07-29T06:55:26.297Z,49.97
2022-07-29T06:57:52.747Z,48.95
2022-07-29T07:00:19.182Z,53.10
2022-07-29T07:02:45.627Z,53.63
2022-07-29T07:05:13.835Z,52.95
2022-07-29T07:07:40.273Z,51.97
2022-07-29T07:10:07.050Z,53.88
2022-07-29T07:12:33.449Z,53.75
2022-07-29T07:14:59.887Z,50.53
2022-07-29T07:17:26.279Z,52.72
2022-07-29T07:19:52.672Z,52.80
2022-07-29T07:22:19.098Z,52.13
2022-07-29T07:24:45.504Z,52.78
2022-07-29T07:27:11.981Z,55.67
2022-07-29T07:29:41.946Z,52.95
2022-07-29T07:32:11.149Z,53.75
2022-07-29T07:34:38.815Z,51.13
2022-07-29T07:37:05.639Z,51.50
2022-07-29T07:39:32.054Z,50.63
2022-07-29T07:41:58.475Z,50.85
2022-07-29T07:44:25.070Z,55.80
2022-07-29T07:46:51.486Z,47.90
2022-07-29T07:49:17.916Z,56.63
2022-07-29T07:51:44.358Z,41.00
2022-07-29T07:54:18.465Z,40.00
2022-07-29T07:56:49.835Z,38.33
2022-07-29T07:59:19.351Z,37.58
2022-07-29T08:01:48.184Z,37.30
2022-07-29T08:04:27.757Z,33.90
2022-07-29T08:06:55.568Z,43.88
2022-07-29T08:09:29.257Z,42.55
2022-07-29T08:11:58.481Z,41.97
2022-07-29T08:14:25.023Z,39.50
2022-07-29T08:16:52.329Z,39.53
2022-07-29T08:19:18.966Z,39.72
2022-07-29T08:21:45.414Z,36.13
2022-07-29T08:24:30.523Z,38.08
2022-07-29T08:26:57.004Z,43.15
2022-07-29T08:29:23.414Z,31.35
2022-07-29T08:31:49.960Z,33.30
2022-07-29T08:34:16.492Z,36.42
2022-07-29T08:36:42.877Z,36.70
2022-07-29T08:39:09.282Z,37.97
2022-07-29T08:41:36.323Z,35.50
2022-07-29T08:44:02.752Z,38.67
2022-07-29T08:46:29.247Z,37.65
2022-07-29T08:48:56.319Z,40.17
2022-07-29T08:51:23.042Z,39.85
2022-07-29T08:53:51.011Z,35.65
2022-07-29T08:56:19.599Z,37.08
2022-07-29T08:58:49.858Z,38.92
2022-07-29T09:01:23.391Z,38.25
2022-07-29T09:04:08.308Z,35.42
2022-07-29T09:06:38.353Z,45.70
2022-07-29T09:09:05.174Z,50.35
2022-07-29T09:11:33.480Z,46.45
2022-07-29T09:14:00.316Z,53.92
2022-07-29T09:16:50.782Z,61.20
2022-07-29T09:19:24.972Z,69.70
2022-07-29T09:22:01.660Z,66.15
2022-07-29T09:24:42.143Z,50.40
2022-07-29T09:27:26.843Z,44.85
2022-07-29T09:32:34.420Z,41.60
2022-07-29T09:35:17.406Z,40.95
2022-07-29T09:37:45.580Z,40.75
2022-07-29T09:40:14.020Z,40.92
2022-07-29T09:42:40.627Z,37.72
2022-07-29T09:45:07.991Z,38.63
2022-07-29T09:47:50.004Z,42.08
2022-07-29T09:50:16.950Z,37.15
2022-07-29T09:52:52.395Z,35.05
2022-07-29T09:55:20.066Z,31.55
2022-07-29T09:57:47.823Z,33.05
2022-07-29T10:00:20.355Z,42.80
2022-07-29T10:02:48.097Z,40.10
2022-07-29T10:05:20.649Z,41.90
2022-07-29T10:07:57.396Z,38.60
2022-07-29T10:10:34.660Z,41.58
2022-07-29T10:13:13.527Z,43.55
2022-07-29T10:15:45.043Z,36.17
2022-07-29T10:18:13.648Z,38.33
2022-07-29T10:20:40.688Z,38.80
2022-07-29T10:23:07.265Z,37.63
2022-07-29T10:25:33.851Z,38.75
2022-07-29T10:28:00.387Z,37.03
2022-07-29T10:30:27.978Z,40.25
2022-07-29T10:33:28.309Z,39.42
2022-07-29T10:36:05.904Z,37.17
2022-07-29T10:38:35.260Z,36.42
2022-07-29T10:41:43.656Z,40.10
2022-07-29T10:44:19.316Z,37.80
2022-07-29T10:46:46.998Z,35.92
2022-07-29T10:49:18.587Z,39.20
2022-07-29T10:51:51.068Z,40.17
2022-07-29T10:54:18.718Z,38.45
2022-07-29T10:56:45.594Z,38.95
2022-07-29T10:59:19.214Z,38.33
2022-07-29T11:01:52.464Z,38.42
2022-07-29T11:04:45.039Z,40.45
2022-07-29T11:07:12.160Z,36.45
2022-07-29T11:09:39.538Z,37.90
2022-07-29T11:12:37.324Z,33.67
2022-07-29T11:15:07.879Z,35.25
2022-07-29T11:17:53.317Z,36.72
2022-07-29T11:20:38.122Z,30.75
2022-07-29T11:23:33.784Z,24.05
2022-07-29T11:26:18.530Z,26.25
2022-07-29T11:28:52.075Z,24.30
2022-07-29T11:31:44.647Z,25.15
2022-07-29T11:34:33.378Z,28.75
2022-07-29T11:37:07.346Z,32.03
2022-07-29T11:39:36.728Z,37.35
2022-07-29T11:42:28.480Z,32.47
2022-07-29T11:45:08.434Z,23.35
2022-07-29T11:47:47.810Z,21.90
2022-07-29T11:50:18.957Z,23.70
2022-07-29T11:52:53.553Z,20.33
2022-07-29T11:55:23.465Z,19.27
2022-07-29T11:58:03.572Z,18.58
2022-07-29T12:00:36.908Z,20.35
2022-07-29T12:03:06.549Z,22.60
2022-07-29T12:05:39.795Z,17.80
2022-07-29T12:08:19.927Z,19.20
2022-07-29T12:10:48.143Z,22.17
2022-07-29T12:13:17.215Z,20.83
2022-07-29T12:15:52.212Z,29.63
2022-07-29T12:18:23.986Z,31.38
2022-07-29T12:21:03.403Z,24.20
2022-07-29T12:23:34.469Z,31.55
2022-07-29T12:26:04.941Z,29.42
2022-07-29T12:28:38.327Z,27.67
2022-07-29T12:31:05.542Z,34.05
2022-07-29T12:33:32.476Z,34.40
2022-07-29T12:36:12.795Z,33.97
2022-07-29T12:38:44.052Z,34.22
2022-07-29T12:41:11.326Z,33.20
2022-07-29T12:43:37.752Z,33.38
2022-07-29T12:46:15.855Z,34.42
2022-07-29T12:48:43.903Z,33.88
2022-07-29T12:51:12.610Z,28.88
2022-07-29T12:53:39.783Z,25.10
2022-07-29T12:56:26.699Z,29.85
2022-07-29T12:58:53.916Z,33.55
2022-07-29T13:01:20.982Z,31.55
2022-07-29T13:03:59.855Z,17.75
2022-07-29T13:06:46.158Z,21.17
2022-07-29T13:09:19.442Z,19.35
2022-07-29T13:11:51.776Z,13.75
2022-07-29T13:14:56.934Z,14.50
2022-07-29T13:17:24.108Z,13.70
2022-07-29T13:19:52.934Z,7.93
2022-07-29T13:22:22.252Z,8.50
2022-07-29T13:24:48.600Z,9.75
2022-07-29T13:27:16.668Z,9.52
2022-07-29T13:29:43.106Z,11.80
2022-07-29T13:32:09.671Z,9.65
2022-07-29T13:34:36.074Z,12.70
2022-07-29T13:37:03.060Z,14.85
2022-07-29T13:39:29.540Z,13.43
2022-07-29T13:41:56.302Z,12.70
2022-07-29T13:44:24.074Z,13.70
2022-07-29T13:46:50.977Z,14.43
2022-07-29T13:49:17.477Z,12.77
2022-07-29T13:51:44.188Z,13.10
2022-07-29T13:54:10.599Z,13.02
2022-07-29T13:56:37.069Z,12.20
2022-07-29T13:59:03.471Z,11.25
2022-07-29T14:01:31.321Z,14.00
2022-07-29T14:03:57.990Z,13.43
2022-07-29T14:06:24.626Z,11.77
2022-07-29T14:08:51.954Z,14.55
2022-07-29T14:11:18.597Z,14.05
2022-07-29T14:13:45.417Z,11.10
2022-07-29T14:16:11.995Z,13.02
2022-07-29T14:18:38.593Z,10.88
2022-07-29T14:21:05.073Z,11.98
2022-07-29T14:23:31.552Z,12.10
2022-07-29T14:25:58.291Z,12.48
2022-07-29T14:28:24.685Z,13.30
2022-07-29T14:30:51.048Z,12.95
2022-07-29T14:33:17.870Z,13.50
2022-07-29T14:35:45.439Z,10.43
2022-07-29T14:38:11.983Z,11.30
2022-07-29T14:40:38.922Z,10.82
2022-07-29T14:43:05.422Z,10.35
2022-07-29T14:45:32.425Z,11.07
2022-07-29T14:47:58.971Z,12.05
2022-07-29T14:50:31.497Z,11.52
2022-07-29T14:52:59.109Z,11.23
2022-07-29T14:55:25.622Z,11.57
2022-07-29T14:57:55.435Z,12.65
2022-07-29T15:00:25.274Z,11.68
2022-07-29T15:03:01.998Z,12.90
2022-07-29T15:05:29.440Z,12.98
2022-07-29T15:07:55.846Z,12.00
2022-07-29T15:10:22.327Z,14.45
2022-07-29T15:12:51.273Z,15.27
2022-07-29T15:15:17.738Z,14.68
2022-07-29T15:17:44.182Z,14.27
2022-07-29T15:20:13.607Z,13.77
2022-07-29T15:22:42.096Z,13.98
2022-07-29T15:25:10.525Z,13.82
2022-07-29T15:27:37.109Z,14.13
2022-07-29T15:30:04.157Z,15.48
2022-07-29T15:32:30.590Z,17.48
2022-07-29T15:34:56.984Z,19.52
2022-07-29T15:37:23.460Z,20.58
2022-07-29T15:39:50.798Z,20.15
2022-07-29T15:42:17.843Z,24.50
2022-07-29T15:44:44.339Z,24.52
2022-07-29T15:47:10.822Z,21.13
2022-07-29T15:49:48.000Z,20.02
2022-07-29T15:52:18.231Z,17.77
2022-07-29T15:54:44.734Z,18.98
2022-07-29T15:57:11.169Z,19.15
2022-07-29T15:59:37.598Z,18.83
2022-07-29T16:02:04.206Z,21.75
2022-07-29T16:04:31.915Z,20.15
2022-07-29T16:06:58.777Z,18.17
2022-07-29T16:09:26.528Z,20.35
2022-07-29T16:11:53.968Z,21.77
2022-07-29T16:14:20.770Z,21.45
2022-07-29T16:16:47.577Z,23.00
2022-07-29T16:19:14.583Z,16.48
2022-07-29T16:21:42.533Z,25.25
2022-07-29T16:24:23.134Z,17.40
2022-07-29T16:30:09.590Z,21.67
2022-07-29T16:32:36.182Z,20.13
2022-07-29T16:35:05.058Z,19.77
2022-07-29T16:37:35.290Z,18.75
2022-07-29T16:40:02.295Z,22.23
2022-07-29T16:42:45.677Z,23.08
2022-07-29T16:45:12.835Z,23.80
2022-07-29T16:47:39.331Z,26.83
2022-07-29T16:50:06.249Z,23.38
2022-07-29T16:52:32.712Z,21.70
2022-07-29T16:54:59.141Z,26.27
2022-07-29T16:57:25.862Z,29.05
2022-07-29T16:59:52.493Z,27.65
2022-07-29T17:02:18.965Z,22.52
2022-07-29T17:04:45.498Z,26.80
2022-07-29T17:07:12.029Z,23.13
2022-07-29T17:09:38.528Z,22.95
2022-07-29T17:12:05.466Z,25.85
2022-07-29T17:14:32.270Z,21.52
2022-07-29T17:17:01.959Z,24.88
2022-07-29T17:19:32.212Z,24.35
2022-07-29T17:22:09.426Z,23.75
2022-07-29T17:24:38.827Z,24.85
2022-07-29T17:27:06.155Z,25.23
2022-07-29T17:29:32.743Z,20.90
2022-07-29T17:31:59.990Z,27.90
2022-07-29T17:34:26.940Z,19.13
2022-07-29T17:36:53.552Z,22.45
2022-07-29T17:39:19.949Z,28.00
2022-07-29T17:41:46.819Z,26.85
2022-07-29T17:44:13.498Z,27.92
2022-07-29T17:46:40.642Z,25.58
2022-07-29T17:49:07.335Z,25.30
2022-07-29T17:51:34.325Z,22.83
2022-07-29T17:54:00.846Z,17.88
2022-07-29T17:56:28.367Z,26.10
2022-07-29T17:58:55.088Z,26.88
2022-07-29T18:01:23.385Z,29.90
2022-07-29T18:03:50.079Z,27.65
2022-07-29T18:06:16.442Z,30.70
2022-07-29T18:08:43.134Z,28.85
2022-07-29T18:11:09.548Z,22.13
2022-07-29T18:13:42.260Z,20.95
2022-07-29T18:16:09.411Z,27.38
2022-07-29T18:18:36.064Z,19.17
2022-07-29T18:21:03.445Z,24.05
2022-07-29T18:23:30.206Z,21.65
2022-07-29T18:25:56.770Z,22.25
2022-07-29T18:28:23.655Z,13.48
2022-07-29T18:30:50.378Z,15.85
2022-07-29T18:33:22.348Z,18.02
2022-07-29T18:35:51.945Z,17.20
2022-07-29T18:38:18.958Z,20.48
2022-07-29T18:40:45.916Z,14.25
2022-07-29T18:43:12.923Z,13.10
2022-07-29T18:45:39.734Z,13.27
2022-07-29T18:48:08.373Z,16.25
2022-07-29T18:50:40.238Z,15.45
2022-07-29T18:53:06.862Z,16.85
2022-07-29T18:55:33.366Z,17.55
2022-07-29T18:58:05.608Z,17.35
2022-07-29T19:00:36.029Z,18.63
2022-07-29T19:03:13.673Z,18.42
2022-07-29T19:05:43.949Z,19.60
2022-07-29T19:08:10.699Z,20.27
2022-07-29T19:10:37.136Z,19.95
2022-07-29T19:13:03.670Z,18.83
2022-07-29T19:15:30.475Z,18.23
2022-07-29T19:18:00.961Z,18.23
2022-07-29T19:20:28.315Z,16.77
2022-07-29T19:22:58.720Z,15.88
2022-07-29T19:25:32.823Z,17.65
2022-07-29T19:28:02.259Z,15.63
2022-07-29T19:30:28.704Z,13.50
2022-07-29T19:32:55.194Z,13.15
2022-07-29T19:35:24.548Z,12.77
2022-07-29T19:37:52.151Z,13.25
2022-07-29T19:40:18.899Z,13.98
2022-07-29T19:42:45.563Z,16.05
2022-07-29T19:45:12.110Z,13.52
2022-07-29T19:47:38.556Z,15.02
2022-07-29T19:50:05.571Z,19.90
2022-07-29T19:52:32.337Z,16.70
2022-07-29T19:54:58.861Z,15.80
2022-07-29T19:57:25.283Z,14.90
2022-07-29T19:59:52.715Z,15.73
2022-07-29T20:02:19.323Z,13.57
2022-07-29T20:04:45.874Z,16.58
2022-07-29T20:07:13.484Z,17.48
2022-07-29T20:09:41.245Z,18.90
2022-07-29T20:12:09.041Z,17.88
2022-07-29T20:14:36.063Z,17.58
2022-07-29T20:17:02.847Z,19.40
2022-07-29T20:19:29.486Z,17.92
2022-07-29T20:21:55.901Z,18.67
2022-07-29T20:24:22.421Z,24.88
2022-07-29T20:26:52.324Z,20.45
2022-07-29T20:29:26.806Z,18.80
2022-07-29T20:31:56.442Z,16.98
2022-07-29T20:34:23.127Z,18.52
2022-07-29T20:36:49.736Z,22.35
2022-07-29T20:39:16.335Z,18.90
2022-07-29T20:41:42.701Z,17.60
2022-07-29T20:44:09.312Z,19.27
2022-07-29T20:46:35.738Z,18.08
2022-07-29T20:49:02.325Z,18.58
2022-07-29T20:51:28.776Z,17.58
2022-07-29T20:53:55.209Z,17.58
2022-07-29T20:56:21.714Z,16.95
2022-07-29T20:58:48.129Z,17.67
2022-07-29T21:01:14.783Z,21.98
2022-07-29T21:03:41.344Z,24.40
2022-07-29T21:06:09.042Z,21.70
2022-07-29T21:08:35.749Z,22.70
2022-07-29T21:11:02.138Z,21.80
2022-07-29T21:13:28.523Z,23.27
2022-07-29T21:15:59.565Z,22.30
2022-07-29T21:18:34.236Z,22.65
2022-07-29T21:21:01.257Z,28.35
2022-07-29T21:23:28.088Z,25.27
2022-07-29T21:25:54.885Z,23.80
2022-07-29T21:28:27.729Z,22.23
2022-07-29T21:30:55.718Z,22.90
2022-07-29T21:33:22.379Z,25.35
2022-07-29T21:36:26.621Z,24.85
2022-07-29T21:38:36.448Z,29.05
2022-07-29T21:41:04.727Z,24.23
2022-07-29T21:43:31.600Z,23.45
2022-07-29T21:46:00.095Z,20.38
2022-07-29T21:48:27.975Z,25.38
2022-07-29T21:50:54.882Z,21.90
2022-07-29T21:53:22.115Z,21.80
2022-07-29T21:55:54.291Z,20.30
2022-07-29T21:58:22.769Z,22.23
2022-07-29T22:00:49.184Z,21.45
2022-07-29T22:03:15.718Z,21.10
2022-07-29T22:05:42.277Z,24.70
2022-07-29T22:08:08.710Z,20.63
2022-07-29T22:10:35.686Z,24.33
2022-07-29T22:13:03.091Z,23.63
2022-07-29T22:15:30.800Z,28.40
2022-07-29T22:17:57.888Z,32.22
2022-07-29T22:20:24.745Z,31.25
2022-07-29T22:22:51.362Z,25.80
2022-07-29T22:25:17.877Z,31.90
2022-07-29T22:27:44.389Z,34.00
2022-07-29T22:30:11.306Z,29.08
2022-07-29T22:32:37.752Z,32.08
2022-07-29T22:35:04.487Z,30.30
2022-07-29T22:37:31.060Z,31.50
2022-07-29T22:39:57.502Z,31.58
2022-07-29T22:42:23.954Z,31.48
2022-07-29T22:44:50.412Z,32.90
2022-07-29T22:47:16.938Z,30.58
2022-07-29T22:49:43.382Z,32.20
2022-07-29T22:52:09.906Z,25.80
2022-07-29T22:54:38.224Z,29.58
2022-07-29T22:57:06.018Z,28.70
2022-07-29T22:59:32.430Z,25.88
2022-07-29T23:01:59.365Z,24.27
2022-07-29T23:04:25.850Z,23.70
2022-07-29T23:06:52.274Z,23.20
2022-07-29T23:09:18.903Z,23.05
2022-07-29T23:11:47.071Z,24.35
2022-07-29T23:14:13.525Z,22.52
2022-07-29T23:16:40.056Z,23.65
2022-07-29T23:19:06.522Z,26.02
2022-07-29T23:21:33.118Z,24.02
2022-07-29T23:23:59.527Z,27.02
2022-07-29T23:26:26.012Z,24.48
2022-07-29T23:28:52.452Z,26.80
2022-07-29T23:31:19.020Z,24.50
2022-07-29T23:33:45.620Z,24.88
2022-07-29T23:36:12.042Z,23.95
2022-07-29T23:38:40.830Z,25.30
2022-07-29T23:41:09.539Z,26.70
2022-07-29T23:43:37.132Z,24.70
2022-07-29T23:46:04.348Z,25.70
2022-07-29T23:48:34.437Z,28.45
2022-07-29T23:51:01.113Z,27.00
2022-07-29T23:53:28.394Z,27.65
2022-07-29T23:55:55.626Z,29.27
2022-07-29T23:58:22.072Z,29.80
